createdAt,value
2022-08-07T00:00:23.491Z,18.40
2022-08-07T00:02:51.289Z,18.40
2022-08-07T00:05:20.985Z,18.50
2022-08-07T00:07:59.915Z,18.50
2022-08-07T00:10:30.488Z,18.00
2022-08-07T00:13:09.713Z,18.20
2022-08-07T00:15:51.732Z,18.50
2022-08-07T00:18:24.115Z,18.40
2022-08-07T00:20:54.084Z,18.20
2022-08-07T00:23:21.689Z,17.90
2022-08-07T00:25:58.231Z,18.10
2022-08-07T00:28:33.180Z,18.00
2022-08-07T00:31:06.103Z,18.00
2022-08-07T00:33:40.599Z,18.00
2022-08-07T00:36:08.570Z,18.00
2022-08-07T00:38:38.996Z,17.90
2022-08-07T00:41:10.121Z,17.80
2022-08-07T00:43:59.520Z,18.00
2022-08-07T00:46:29.140Z,18.10
2022-08-07T00:48:55.965Z,17.70
2022-08-07T00:51:22.808Z,17.80
2022-08-07T00:53:55.359Z,17.80
2022-08-07T00:56:23.648Z,17.90
2022-08-07T00:58:57.622Z,18.00
2022-08-07T01:01:24.837Z,17.90
2022-08-07T01:03:56.253Z,17.60
2022-08-07T01:06:30.094Z,17.50
2022-08-07T01:08:58.564Z,17.40
2022-08-07T01:12:10.064Z,17.60
2022-08-07T01:14:17.074Z,17.50
2022-08-07T01:16:48.350Z,17.40
2022-08-07T01:19:18.740Z,17.40
2022-08-07T01:21:48.432Z,17.30
2022-08-07T01:24:18.677Z,17.20
2022-08-07T01:26:51.916Z,17.20
2022-08-07T01:29:20.523Z,16.90
2022-08-07T01:31:49.530Z,16.80
2022-08-07T01:34:18.622Z,16.70
2022-08-07T01:36:52.479Z,16.60
2022-08-07T01:39:25.267Z,16.50
2022-08-07T01:42:37.076Z,16.50
2022-08-07T01:44:53.931Z,16.50
2022-08-07T01:48:20.951Z,16.40
2022-08-07T01:50:08.950Z,16.30
2022-08-07T01:52:39.036Z,16.40
2022-08-07T01:55:22.352Z,16.40
2022-08-07T01:58:06.051Z,16.20
2022-08-07T02:00:49.148Z,16.30
2022-08-07T02:03:26.308Z,16.30
2022-08-07T02:06:02.341Z,16.30
2022-08-07T02:08:40.424Z,16.30
2022-08-07T02:11:11.093Z,16.20
2022-08-07T02:14:02.401Z,16.10
2022-08-07T02:16:33.330Z,16.10
2022-08-07T02:19:05.350Z,16.20
2022-08-07T02:21:56.058Z,16.10
2022-08-07T02:24:24.997Z,16.10
2022-08-07T02:26:52.805Z,16.00
2022-08-07T02:29:21.907Z,16.10
2022-08-07T02:31:50.482Z,16.30
2022-08-07T02:34:20.214Z,16.10
2022-08-07T02:36:49.384Z,15.90
2022-08-07T02:39:42.951Z,15.80
2022-08-07T02:42:10.123Z,15.80
2022-08-07T02:44:48.390Z,15.90
2022-08-07T02:47:29.119Z,15.90
2022-08-07T02:50:06.376Z,15.90
2022-08-07T02:52:47.893Z,16.10
2022-08-07T02:55:28.636Z,16.00
2022-08-07T02:58:12.910Z,16.20
2022-08-07T03:00:42.022Z,16.50
2022-08-07T03:03:21.013Z,16.30
2022-08-07T03:05:53.558Z,16.30
2022-08-07T03:08:26.855Z,16.30
2022-08-07T03:10:56.868Z,16.10
2022-08-07T03:13:24.365Z,15.90
2022-08-07T03:15:56.132Z,16.10
2022-08-07T03:18:34.679Z,16.20
2022-08-07T03:21:08.757Z,16.20
2022-08-07T03:24:18.255Z,16.10
2022-08-07T03:26:29.839Z,16.30
2022-08-07T03:28:58.576Z,16.40
2022-08-07T03:31:42.081Z,16.30
2022-08-07T03:34:18.893Z,16.10
2022-08-07T03:36:51.556Z,16.00
2022-08-07T03:39:46.416Z,16.00
2022-08-07T03:42:09.061Z,16.00
2022-08-07T03:44:37.652Z,16.00
2022-08-07T03:47:11.042Z,16.10
2022-08-07T03:49:47.664Z,16.10
2022-08-07T03:52:26.414Z,15.90
2022-08-07T03:55:07.482Z,15.90
2022-08-07T03:58:08.869Z,15.90
2022-08-07T04:00:30.586Z,15.90
2022-08-07T04:03:04.077Z,15.90
2022-08-07T04:05:40.768Z,16.00
2022-08-07T04:08:16.235Z,15.90
2022-08-07T04:10:54.649Z,15.80
2022-08-07T04:14:09.267Z,15.70
2022-08-07T04:16:30.946Z,15.70
2022-08-07T04:19:04.203Z,15.60
2022-08-07T04:21:39.399Z,15.70
2022-08-07T04:24:30.600Z,15.70
2022-08-07T04:27:02.988Z,15.70
2022-08-07T04:29:57.157Z,15.70
2022-08-07T04:32:18.475Z,15.80
2022-08-07T04:35:05.561Z,15.80
2022-08-07T04:37:52.752Z,15.70
2022-08-07T04:40:22.428Z,15.70
2022-08-07T04:43:01.387Z,15.70
2022-08-07T04:45:57.437Z,15.60
2022-08-07T04:48:44.779Z,15.60
2022-08-07T04:51:19.706Z,15.50
2022-08-07T04:54:07.822Z,15.40
2022-08-07T04:58:11.836Z,15.50
2022-08-07T05:00:11.169Z,15.40
2022-08-07T05:02:35.424Z,15.60
2022-08-07T05:05:53.417Z,15.60
2022-08-07T05:08:59.939Z,15.50
2022-08-07T05:11:19.325Z,15.10
2022-08-07T05:14:53.188Z,15.00
2022-08-07T05:16:52.726Z,15.00
2022-08-07T05:19:32.757Z,15.40
2022-08-07T05:22:11.294Z,15.50
2022-08-07T05:24:40.587Z,15.40
2022-08-07T05:27:18.395Z,15.40
2022-08-07T05:30:00.161Z,15.60
2022-08-07T05:32:27.862Z,15.90
2022-08-07T05:34:55.868Z,15.70
2022-08-07T05:37:25.110Z,15.80
2022-08-07T05:40:18.070Z,15.80
2022-08-07T05:42:39.954Z,16.30
2022-08-07T05:45:14.716Z,16.50
2022-08-07T05:48:02.364Z,16.40
2022-08-07T05:50:33.884Z,16.30
2022-08-07T05:53:02.354Z,16.30
2022-08-07T05:56:03.681Z,16.30
2022-08-07T05:58:36.138Z,16.40
2022-08-07T06:01:08.375Z,16.60
2022-08-07T06:03:56.660Z,16.70
2022-08-07T06:06:29.872Z,16.60
2022-08-07T06:08:59.844Z,16.70
2022-08-07T06:11:26.884Z,17.10
2022-08-07T06:14:13.213Z,16.70
2022-08-07T06:16:50.198Z,16.80
2022-08-07T06:19:51.921Z,16.90
2022-08-07T06:22:14.628Z,17.10
2022-08-07T06:24:57.071Z,17.30
2022-08-07T06:27:44.158Z,17.00
2022-08-07T06:30:32.145Z,17.40
2022-08-07T06:33:01.201Z,17.40
2022-08-07T06:35:39.075Z,17.40
2022-08-07T06:38:19.306Z,17.60
2022-08-07T06:40:51.341Z,17.50
2022-08-07T06:43:22.658Z,17.50
2022-08-07T06:45:50.854Z,17.60
2022-08-07T06:48:25.190Z,17.70
2022-08-07T06:50:54.321Z,17.80
2022-08-07T06:55:30.264Z,17.90
2022-08-07T06:56:15.201Z,17.80
2022-08-07T07:00:11.648Z,18.00
2022-08-07T07:01:41.969Z,18.10
2022-08-07T07:04:28.366Z,18.30
2022-08-07T07:07:01.327Z,18.30
2022-08-07T07:09:31.245Z,18.30
2022-08-07T07:12:09.036Z,18.30
2022-08-07T07:15:23.784Z,18.50
2022-08-07T07:18:48.155Z,18.80
2022-08-07T07:21:27.047Z,18.70
2022-08-07T07:24:12.580Z,18.90
2022-08-07T07:26:49.737Z,18.80
2022-08-07T07:29:39.048Z,19.00
2022-08-07T07:32:14.084Z,19.10
2022-08-07T07:34:46.633Z,19.20
2022-08-07T07:37:45.564Z,19.30
2022-08-07T07:40:10.130Z,19.30
2022-08-07T07:42:38.603Z,19.30
2022-08-07T07:45:07.142Z,19.20
2022-08-07T07:47:51.969Z,19.20
2022-08-07T07:50:36.037Z,19.30
2022-08-07T07:53:20.604Z,19.60
2022-08-07T07:55:54.648Z,19.40
2022-08-07T07:58:29.290Z,19.60
2022-08-07T08:00:58.672Z,19.70
2022-08-07T08:04:06.234Z,19.90
2022-08-07T08:06:15.823Z,19.80
2022-08-07T08:08:43.928Z,19.70
2022-08-07T08:11:16.392Z,19.90
2022-08-07T08:13:54.402Z,20.00
2022-08-07T08:16:29.612Z,20.00
2022-08-07T08:19:00.228Z,20.20
2022-08-07T08:22:00.488Z,20.20
2022-08-07T08:25:04.579Z,20.20
2022-08-07T08:27:44.889Z,20.30
2022-08-07T08:30:25.492Z,20.60
2022-08-07T08:33:03.004Z,20.70
2022-08-07T08:35:39.447Z,20.80
2022-08-07T08:38:16.856Z,20.80
2022-08-07T08:41:00.312Z,20.50
2022-08-07T08:43:58.638Z,20.70
2022-08-07T08:46:49.028Z,21.20
2022-08-07T08:50:05.529Z,21.20
2022-08-07T08:52:54.276Z,21.10
2022-08-07T08:55:54.503Z,21.40
2022-08-07T08:58:54.643Z,21.70
2022-08-07T09:01:52.580Z,21.60
2022-08-07T09:04:45.681Z,21.70
2022-08-07T09:07:46.228Z,21.80
2022-08-07T09:10:34.060Z,21.90
2022-08-07T09:13:14.672Z,22.10
2022-08-07T09:16:23.469Z,22.20
2022-08-07T09:19:53.556Z,22.30
2022-08-07T09:24:27.995Z,22.20
2022-08-07T09:25:17.278Z,22.40
2022-08-07T09:28:03.096Z,22.60
2022-08-07T09:30:52.905Z,22.70
2022-08-07T09:33:52.639Z,22.90
2022-08-07T09:36:35.829Z,23.00
2022-08-07T09:39:54.190Z,23.10
2022-08-07T09:42:42.106Z,22.80
2022-08-07T09:47:25.693Z,23.10
2022-08-07T09:50:02.360Z,23.40
2022-08-07T09:52:34.685Z,23.40
2022-08-07T09:55:17.000Z,23.50
2022-08-07T09:58:32.329Z,23.80
2022-08-07T10:01:51.173Z,24.00
2022-08-07T10:04:15.998Z,24.10
2022-08-07T10:07:25.576Z,24.00
2022-08-07T10:10:21.954Z,23.80
2022-08-07T10:13:11.112Z,24.20
2022-08-07T10:16:14.707Z,24.30
2022-08-07T10:19:03.523Z,24.80
2022-08-07T10:22:18.074Z,24.90
2022-08-07T10:25:03.068Z,25.00
2022-08-07T10:27:46.588Z,25.00
2022-08-07T10:30:18.722Z,24.70
2022-08-07T10:33:09.657Z,24.90
2022-08-07T10:35:55.957Z,25.10
2022-08-07T10:38:36.019Z,25.00
2022-08-07T10:41:52.192Z,24.90
2022-08-07T10:44:28.455Z,25.10
2022-08-07T10:47:52.529Z,25.50
2022-08-07T10:50:26.073Z,25.30
2022-08-07T10:53:24.990Z,25.30
2022-08-07T10:56:32.829Z,25.50
2022-08-07T10:59:37.282Z,25.80
2022-08-07T11:02:34.028Z,25.80
2022-08-07T11:05:55.182Z,25.90
2022-08-07T11:08:43.953Z,25.90
2022-08-07T11:11:16.378Z,26.20
2022-08-07T11:14:46.080Z,26.00
2022-08-07T11:17:08.970Z,25.80
2022-08-07T11:19:57.551Z,26.20
2022-08-07T11:22:45.921Z,26.00
2022-08-07T11:25:17.902Z,26.20
2022-08-07T11:28:15.353Z,26.50
2022-08-07T11:30:59.090Z,26.40
2022-08-07T11:33:48.755Z,26.20
2022-08-07T11:36:49.779Z,26.50
2022-08-07T11:39:19.403Z,26.20
2022-08-07T11:42:18.641Z,26.30
2022-08-07T11:45:00.242Z,26.50
2022-08-07T11:47:59.501Z,26.40
2022-08-07T11:50:59.212Z,26.50
2022-08-07T11:54:01.754Z,26.20
2022-08-07T11:56:58.953Z,26.40
2022-08-07T12:00:11.639Z,26.90
2022-08-07T12:02:52.763Z,26.80
2022-08-07T12:05:58.256Z,26.80
2022-08-07T12:08:34.721Z,26.90
2022-08-07T12:11:21.834Z,26.80
2022-08-07T12:14:08.446Z,27.00
2022-08-07T12:16:43.897Z,27.10
2022-08-07T12:20:03.311Z,27.10
2022-08-07T12:23:17.942Z,27.00
2022-08-07T12:26:23.360Z,26.90
2022-08-07T12:29:37.514Z,27.10
2022-08-07T12:32:24.100Z,27.10
2022-08-07T12:34:55.769Z,27.10
2022-08-07T12:37:27.770Z,27.50
2022-08-07T12:39:58.628Z,27.30
2022-08-07T12:42:28.541Z,27.20
2022-08-07T12:45:05.837Z,27.40
2022-08-07T12:47:49.361Z,27.50
2022-08-07T12:50:48.917Z,27.50
2022-08-07T12:54:23.999Z,27.80
2022-08-07T12:56:51.489Z,27.30
2022-08-07T12:59:33.097Z,27.20
2022-08-07T13:02:12.802Z,27.40
2022-08-07T13:05:01.154Z,27.70
2022-08-07T13:08:13.858Z,27.60
2022-08-07T13:11:08.760Z,27.70
2022-08-07T13:14:03.348Z,27.80
2022-08-07T13:16:32.808Z,27.40
2022-08-07T13:19:35.011Z,27.30
2022-08-07T13:22:19.466Z,27.60
2022-08-07T13:25:09.210Z,27.60
2022-08-07T13:28:11.541Z,27.70
2022-08-07T13:30:44.169Z,27.60
2022-08-07T13:34:31.955Z,27.80
2022-08-07T13:36:40.649Z,27.60
2022-08-07T13:40:33.211Z,27.50
2022-08-07T13:42:30.829Z,27.60
2022-08-07T13:46:06.234Z,27.80
2022-08-07T13:48:06.480Z,27.80
2022-08-07T13:50:45.156Z,28.30
2022-08-07T13:53:59.529Z,28.20
2022-08-07T13:56:36.068Z,27.90
2022-08-07T13:59:19.628Z,27.80
2022-08-07T14:02:04.753Z,28.10
2022-08-07T14:04:38.947Z,27.90
2022-08-07T14:07:21.405Z,28.10
2022-08-07T14:10:12.205Z,28.20
2022-08-07T14:12:55.184Z,27.60
2022-08-07T14:15:37.437Z,27.70
2022-08-07T14:18:28.611Z,27.70
2022-08-07T14:21:08.265Z,27.70
2022-08-07T14:24:01.250Z,27.80
2022-08-07T14:30:04.808Z,28.10
2022-08-07T14:32:25.618Z,28.10
2022-08-07T14:34:55.007Z,28.00
2022-08-07T14:37:36.484Z,28.30
2022-08-07T14:40:25.985Z,28.20
2022-08-07T14:43:58.939Z,28.10
2022-08-07T14:46:03.959Z,28.10
2022-08-07T14:48:33.640Z,28.30
2022-08-07T14:51:16.210Z,28.40
2022-08-07T14:54:03.801Z,28.10
2022-08-07T14:56:33.542Z,28.00
2022-08-07T15:00:02.476Z,28.40
2022-08-07T15:05:03.362Z,28.50
2022-08-07T15:07:51.347Z,28.00
2022-08-07T15:10:26.486Z,28.00
2022-08-07T15:13:00.377Z,28.40
2022-08-07T15:15:38.828Z,28.20
2022-08-07T15:18:33.945Z,28.00
2022-08-07T15:26:52.730Z,28.20
2022-08-07T15:30:09.799Z,28.10
2022-08-07T15:32:12.430Z,28.00
2022-08-07T15:34:56.959Z,28.20
2022-08-07T15:38:17.235Z,28.10
2022-08-07T15:40:34.304Z,28.20
2022-08-07T15:46:32.204Z,27.70
2022-08-07T15:49:15.230Z,27.80
2022-08-07T15:54:34.230Z,27.60
2022-08-07T15:57:03.389Z,27.50
2022-08-07T15:59:39.045Z,27.60
2022-08-07T16:02:08.519Z,27.80
2022-08-07T16:04:37.911Z,27.70
2022-08-07T16:08:33.705Z,27.60
2022-08-07T16:10:14.805Z,27.70
2022-08-07T16:13:18.045Z,27.80
2022-08-07T16:16:48.206Z,27.90
2022-08-07T16:19:59.298Z,28.00
2022-08-07T16:22:37.733Z,27.60
2022-08-07T16:25:52.238Z,27.60
2022-08-07T16:30:07.580Z,27.40
2022-08-07T16:31:50.190Z,27.40
2022-08-07T16:34:41.854Z,27.40
2022-08-07T16:38:03.330Z,27.50
2022-08-07T16:40:28.948Z,27.40
2022-08-07T16:43:03.365Z,27.30
2022-08-07T16:46:21.389Z,27.20
2022-08-07T16:48:53.750Z,27.20
2022-08-07T16:52:41.686Z,27.20
2022-08-07T16:54:57.901Z,27.30
2022-08-07T16:58:02.094Z,27.20
2022-08-07T17:00:29.435Z,27.20
2022-08-07T17:03:05.114Z,27.20
2022-08-07T17:06:28.683Z,27.30
2022-08-07T17:09:10.826Z,27.10
2022-08-07T17:12:44.729Z,27.10
2022-08-07T17:15:15.706Z,27.00
2022-08-07T17:17:48.913Z,26.90
2022-08-07T17:20:41.669Z,26.90
2022-08-07T17:23:32.318Z,26.90
2022-08-07T17:26:22.797Z,26.80
2022-08-07T17:30:15.861Z,26.80
2022-08-07T17:32:52.610Z,26.90
2022-08-07T17:35:50.303Z,26.70
2022-08-07T17:38:33.059Z,26.60
2022-08-07T17:42:01.943Z,26.60
2022-08-07T17:44:33.732Z,26.60
2022-08-07T17:47:17.077Z,26.50
2022-08-07T17:50:16.474Z,26.40
2022-08-07T17:52:59.621Z,26.40
2022-08-07T17:55:54.744Z,26.40
2022-08-07T17:58:35.637Z,26.30
2022-08-07T18:01:21.028Z,26.30
2022-08-07T18:04:12.286Z,26.20
2022-08-07T18:06:58.212Z,26.20
2022-08-07T18:09:48.316Z,26.10
2022-08-07T18:13:06.711Z,26.10
2022-08-07T18:16:01.840Z,26.00
2022-08-07T18:21:02.284Z,25.90
2022-08-07T18:22:03.547Z,26.00
2022-08-07T18:24:42.362Z,25.80
2022-08-07T18:27:17.385Z,25.70
2022-08-07T18:30:06.026Z,25.60
2022-08-07T18:32:38.148Z,25.50
2022-08-07T18:35:15.702Z,25.50
2022-08-07T18:38:57.160Z,25.30
2022-08-07T18:41:09.457Z,25.40
2022-08-07T18:43:57.825Z,25.30
2022-08-07T18:46:46.276Z,25.20
2022-08-07T18:50:32.510Z,25.30
2022-08-07T18:52:56.955Z,25.10
2022-08-07T18:55:57.841Z,24.90
2022-08-07T18:58:51.832Z,24.80
2022-08-07T19:02:18.920Z,24.70
2022-08-07T19:04:57.908Z,24.70
2022-08-07T19:07:51.745Z,24.60
2022-08-07T19:10:49.857Z,24.50
2022-08-07T19:13:44.866Z,24.40
2022-08-07T19:17:08.019Z,24.30
2022-08-07T19:19:53.632Z,24.20
2022-08-07T19:22:31.395Z,24.00
2022-08-07T19:25:05.456Z,24.00
2022-08-07T19:28:56.940Z,24.00
2022-08-07T19:30:58.632Z,23.80
2022-08-07T19:33:16.040Z,23.80
2022-08-07T19:35:46.088Z,23.70
2022-08-07T19:38:17.778Z,23.60
2022-08-07T19:40:50.450Z,23.60
2022-08-07T19:43:48.592Z,23.60
2022-08-07T19:46:14.722Z,23.60
2022-08-07T19:48:57.003Z,23.40
2022-08-07T19:51:51.853Z,23.40
2022-08-07T19:54:32.942Z,23.40
2022-08-07T19:58:00.890Z,23.30
2022-08-07T19:59:57.160Z,23.10
2022-08-07T20:02:29.956Z,23.00
2022-08-07T20:04:58.022Z,22.90
2022-08-07T20:07:47.363Z,23.00
2022-08-07T20:10:35.920Z,22.90
2022-08-07T20:13:15.763Z,22.90
2022-08-07T20:15:50.188Z,22.70
2022-08-07T20:18:20.112Z,22.70
2022-08-07T20:20:47.597Z,22.60
2022-08-07T20:23:33.084Z,22.50
2022-08-07T20:26:09.933Z,22.40
2022-08-07T20:28:39.739Z,22.40
2022-08-07T20:31:21.734Z,22.30
2022-08-07T20:33:56.542Z,22.20
2022-08-07T20:36:27.196Z,22.20
2022-08-07T20:39:00.436Z,22.20
2022-08-07T20:41:38.490Z,22.00
2022-08-07T20:44:11.118Z,21.90
2022-08-07T20:46:44.139Z,21.90
2022-08-07T20:49:58.517Z,21.90
2022-08-07T20:52:09.319Z,21.90
2022-08-07T20:54:53.044Z,21.80
2022-08-07T20:57:37.697Z,21.80
2022-08-07T21:00:17.625Z,21.60
2022-08-07T21:02:59.184Z,21.50
2022-08-07T21:05:55.830Z,21.20
2022-08-07T21:08:37.663Z,21.20
2022-08-07T21:11:10.764Z,21.10
2022-08-07T21:14:16.401Z,21.00
2022-08-07T21:16:56.415Z,21.10
2022-08-07T21:19:51.483Z,21.10
2022-08-07T21:22:28.394Z,21.10
2022-08-07T21:25:12.215Z,21.00
2022-08-07T21:28:02.110Z,20.90
2022-08-07T21:31:02.576Z,20.80
2022-08-07T21:33:41.288Z,20.70
2022-08-07T21:36:50.024Z,20.50
2022-08-07T21:39:58.202Z,20.60
2022-08-07T21:42:55.907Z,20.60
2022-08-07T21:46:09.580Z,20.50
2022-08-07T21:49:21.143Z,20.50
2022-08-07T21:52:11.706Z,20.40
2022-08-07T21:55:00.219Z,20.50
2022-08-07T21:57:59.876Z,20.50
2022-08-07T22:00:32.024Z,20.50
2022-08-07T22:03:17.159Z,20.70
2022-08-07T22:05:55.027Z,20.90
2022-08-07T22:08:26.395Z,21.00
2022-08-07T22:10:59.785Z,20.70
2022-08-07T22:13:52.395Z,20.50
2022-08-07T22:16:44.321Z,20.30
2022-08-07T22:19:29.373Z,20.20
2022-08-07T22:22:17.964Z,20.20
2022-08-07T22:25:02.952Z,20.20
2022-08-07T22:28:20.103Z,20.20
2022-08-07T22:30:26.371Z,20.10
2022-08-07T22:33:11.160Z,20.20
2022-08-07T22:35:40.781Z,20.20
2022-08-07T22:38:31.837Z,20.20
2022-08-07T22:41:16.303Z,20.30
2022-08-07T22:43:58.621Z,20.20
2022-08-07T22:47:03.452Z,20.20
2022-08-07T22:49:21.121Z,20.20
2022-08-07T22:51:52.006Z,20.30
2022-08-07T22:54:33.414Z,20.40
2022-08-07T22:57:31.154Z,20.70
2022-08-07T23:00:18.726Z,20.60
2022-08-07T23:03:13.383Z,20.30
2022-08-07T23:06:08.681Z,20.20
2022-08-07T23:10:00.937Z,20.10
2022-08-07T23:12:40.929Z,20.10
2022-08-07T23:16:07.386Z,20.20
2022-08-07T23:19:14.019Z,20.20
2022-08-07T23:21:56.278Z,20.20
2022-08-07T23:24:38.551Z,20.20
2022-08-07T23:27:33.705Z,20.20
2022-08-07T23:30:36.305Z,20.10
2022-08-07T23:34:33.888Z,20.00
2022-08-07T23:36:43.760Z,19.90
2022-08-07T23:39:40.788Z,19.80
2022-08-07T23:42:47.877Z,19.70
2022-08-07T23:46:01.875Z,19.80
2022-08-07T23:48:40.725Z,19.80
2022-08-07T23:53:00.145Z,19.80
2022-08-07T23:54:43.959Z,19.90
2022-08-07T23:57:25.147Z,19.90
